sensor_id;sensor_type;location;lat;lon;timestamp;P1;durP1;ratioP1;P2;durP2;ratioP2
71464;SDS011;59274;49.874;9.154;2023-02-21T00:00:03;12.40;;;4.70;;
71464;SDS011;59274;49.874;9.154;2023-02-21T00:02:47;10.18;;;4.43;;
71464;SDS011;59274;49.874;9.154;2023-02-21T00:05:32;13.88;;;4.95;;
71464;SDS011;59274;49.874;9.154;2023-02-21T00:08:16;12.87;;;4.57;;
71464;SDS011;59274;49.874;9.154;2023-02-21T00:11:00;12.73;;;4.65;;
71464;SDS011;59274;49.874;9.154;2023-02-21T00:13:44;15.50;;;5.22;;
71464;SDS011;59274;49.874;9.154;2023-02-21T00:16:28;12.50;;;4.38;;
71464;SDS011;59274;49.874;9.154;2023-02-21T00:19:12;11.52;;;4.10;;
71464;SDS011;59274;49.874;9.154;2023-02-21T00:21:56;11.87;;;4.00;;
71464;SDS011;59274;49.874;9.154;2023-02-21T00:24:40;9.10;;;3.85;;
71464;SDS011;59274;49.874;9.154;2023-02-21T00:27:24;13.02;;;4.20;;
71464;SDS011;59274;49.874;9.154;2023-02-21T00:30:09;9.70;;;3.90;;
71464;SDS011;59274;49.874;9.154;2023-02-21T00:32:53;10.05;;;3.90;;
71464;SDS011;59274;49.874;9.154;2023-02-21T00:35:38;11.60;;;4.13;;
71464;SDS011;59274;49.874;9.154;2023-02-21T00:38:22;10.45;;;3.60;;
71464;SDS011;59274;49.874;9.154;2023-02-21T00:41:05;8.48;;;2.90;;
71464;SDS011;59274;49.874;9.154;2023-02-21T00:43:50;7.07;;;2.72;;
71464;SDS011;59274;49.874;9.154;2023-02-21T00:46:33;9.50;;;2.78;;
71464;SDS011;59274;49.874;9.154;2023-02-21T00:49:18;8.20;;;2.90;;
71464;SDS011;59274;49.874;9.154;2023-02-21T00:52:02;8.73;;;3.10;;
71464;SDS011;59274;49.874;9.154;2023-02-21T00:54:47;9.43;;;3.20;;
71464;SDS011;59274;49.874;9.154;2023-02-21T00:57:33;8.63;;;3.25;;
71464;SDS011;59274;49.874;9.154;2023-02-21T01:00:18;10.55;;;3.83;;
71464;SDS011;59274;49.874;9.154;2023-02-21T01:03:05;12.27;;;4.60;;
71464;SDS011;59274;49.874;9.154;2023-02-21T01:05:49;11.38;;;4.07;;
71464;SDS011;59274;49.874;9.154;2023-02-21T01:08:34;10.80;;;4.00;;
71464;SDS011;59274;49.874;9.154;2023-02-21T01:11:19;9.45;;;3.25;;
71464;SDS011;59274;49.874;9.154;2023-02-21T01:14:05;11.63;;;4.32;;
71464;SDS011;59274;49.874;9.154;2023-02-21T01:16:50;12.20;;;3.67;;
71464;SDS011;59274;49.874;9.154;2023-02-21T01:19:34;11.32;;;3.83;;
71464;SDS011;59274;49.874;9.154;2023-02-21T01:22:18;13.13;;;4.10;;
71464;SDS011;59274;49.874;9.154;2023-02-21T01:25:03;9.73;;;3.80;;
71464;SDS011;59274;49.874;9.154;2023-02-21T01:27:48;13.00;;;3.63;;
71464;SDS011;59274;49.874;9.154;2023-02-21T01:30:32;9.93;;;3.40;;
71464;SDS011;59274;49.874;9.154;2023-02-21T01:33:16;10.25;;;3.20;;
71464;SDS011;59274;49.874;9.154;2023-02-21T01:35:59;10.55;;;3.53;;
71464;SDS011;59274;49.874;9.154;2023-02-21T01:38:43;13.77;;;4.25;;
71464;SDS011;59274;49.874;9.154;2023-02-21T01:41:27;12.23;;;4.40;;
71464;SDS011;59274;49.874;9.154;2023-02-21T01:47:31;12.18;;;4.10;;
71464;SDS011;59274;49.874;9.154;2023-02-21T01:53:03;14.27;;;4.88;;
71464;SDS011;59274;49.874;9.154;2023-02-21T01:55:51;12.23;;;4.78;;
71464;SDS011;59274;49.874;9.154;2023-02-21T01:58:37;11.57;;;4.83;;
71464;SDS011;59274;49.874;9.154;2023-02-21T02:01:41;12.80;;;4.65;;
71464;SDS011;59274;49.874;9.154;2023-02-21T02:04:30;10.98;;;4.55;;
71464;SDS011;59274;49.874;9.154;2023-02-21T02:07:14;14.25;;;5.00;;
71464;SDS011;59274;49.874;9.154;2023-02-21T02:09:58;12.18;;;4.60;;
71464;SDS011;59274;49.874;9.154;2023-02-21T02:37:51;11.85;;;4.75;;
71464;SDS011;59274;49.874;9.154;2023-02-21T02:40:35;11.23;;;4.93;;
71464;SDS011;59274;49.874;9.154;2023-02-21T02:43:30;14.43;;;4.90;;
71464;SDS011;59274;49.874;9.154;2023-02-21T02:48:45;14.95;;;5.13;;
71464;SDS011;59274;49.874;9.154;2023-02-21T02:51:14;12.82;;;5.20;;
71464;SDS011;59274;49.874;9.154;2023-02-21T02:53:40;14.57;;;5.10;;
71464;SDS011;59274;49.874;9.154;2023-02-21T02:56:10;16.45;;;5.30;;
71464;SDS011;59274;49.874;9.154;2023-02-21T03:18:15;11.82;;;4.50;;
71464;SDS011;59274;49.874;9.154;2023-02-21T03:20:41;13.82;;;5.22;;
71464;SDS011;59274;49.874;9.154;2023-02-21T03:23:10;17.35;;;5.30;;
71464;SDS011;59274;49.874;9.154;2023-02-21T03:25:39;12.82;;;5.53;;
71464;SDS011;59274;49.874;9.154;2023-02-21T03:28:06;13.17;;;5.43;;
71464;SDS011;59274;49.874;9.154;2023-02-21T03:30:32;15.32;;;5.50;;
71464;SDS011;59274;49.874;9.154;2023-02-21T03:32:58;11.38;;;4.40;;
71464;SDS011;59274;49.874;9.154;2023-02-21T03:35:26;10.67;;;4.67;;
71464;SDS011;59274;49.874;9.154;2023-02-21T03:37:54;12.65;;;4.80;;
71464;SDS011;59274;49.874;9.154;2023-02-21T03:40:24;16.35;;;4.43;;
71464;SDS011;59274;49.874;9.154;2023-02-21T03:42:53;14.52;;;4.63;;
71464;SDS011;59274;49.874;9.154;2023-02-21T03:45:20;11.33;;;4.83;;
71464;SDS011;59274;49.874;9.154;2023-02-21T03:47:46;12.80;;;4.55;;
71464;SDS011;59274;49.874;9.154;2023-02-21T03:50:11;12.17;;;4.63;;
71464;SDS011;59274;49.874;9.154;2023-02-21T03:52:37;12.63;;;4.72;;
71464;SDS011;59274;49.874;9.154;2023-02-21T03:55:03;12.17;;;4.23;;
71464;SDS011;59274;49.874;9.154;2023-02-21T03:57:29;12.85;;;4.60;;
71464;SDS011;59274;49.874;9.154;2023-02-21T03:59:54;14.77;;;4.90;;
71464;SDS011;59274;49.874;9.154;2023-02-21T04:02:20;12.60;;;4.57;;
71464;SDS011;59274;49.874;9.154;2023-02-21T04:04:46;12.77;;;4.35;;
71464;SDS011;59274;49.874;9.154;2023-02-21T04:07:13;9.45;;;4.00;;
71464;SDS011;59274;49.874;9.154;2023-02-21T04:09:40;10.68;;;4.38;;
71464;SDS011;59274;49.874;9.154;2023-02-21T04:12:05;12.07;;;4.07;;
71464;SDS011;59274;49.874;9.154;2023-02-21T04:14:31;13.40;;;4.00;;
71464;SDS011;59274;49.874;9.154;2023-02-21T04:16:57;9.47;;;4.20;;
71464;SDS011;59274;49.874;9.154;2023-02-21T04:19:22;13.63;;;4.67;;
71464;SDS011;59274;49.874;9.154;2023-02-21T04:21:48;11.23;;;4.32;;
71464;SDS011;59274;49.874;9.154;2023-02-21T04:24:13;17.27;;;4.80;;
71464;SDS011;59274;49.874;9.154;2023-02-21T04:26:39;12.83;;;4.80;;
71464;SDS011;59274;49.874;9.154;2023-02-21T04:29:04;10.00;;;4.00;;
71464;SDS011;59274;49.874;9.154;2023-02-21T04:31:30;11.38;;;4.97;;
71464;SDS011;59274;49.874;9.154;2023-02-21T04:33:56;12.23;;;4.45;;
71464;SDS011;59274;49.874;9.154;2023-02-21T04:36:23;11.25;;;4.68;;
71464;SDS011;59274;49.874;9.154;2023-02-21T04:38:48;13.03;;;4.80;;
71464;SDS011;59274;49.874;9.154;2023-02-21T04:41:14;11.25;;;4.38;;
71464;SDS011;59274;49.874;9.154;2023-02-21T04:43:43;12.10;;;4.30;;
71464;SDS011;59274;49.874;9.154;2023-02-21T04:46:10;11.50;;;4.18;;
71464;SDS011;59274;49.874;9.154;2023-02-21T04:48:40;8.85;;;4.22;;
71464;SDS011;59274;49.874;9.154;2023-02-21T04:51:06;11.65;;;4.53;;
71464;SDS011;59274;49.874;9.154;2023-02-21T04:53:31;11.60;;;4.63;;
71464;SDS011;59274;49.874;9.154;2023-02-21T04:55:57;12.37;;;4.33;;
71464;SDS011;59274;49.874;9.154;2023-02-21T04:58:22;10.20;;;4.63;;
71464;SDS011;59274;49.874;9.154;2023-02-21T05:00:47;12.52;;;4.90;;
71464;SDS011;59274;49.874;9.154;2023-02-21T05:03:13;13.67;;;4.37;;
71464;SDS011;59274;49.874;9.154;2023-02-21T05:05:38;16.30;;;5.10;;
71464;SDS011;59274;49.874;9.154;2023-02-21T05:08:04;13.37;;;4.97;;
71464;SDS011;59274;49.874;9.154;2023-02-21T05:10:29;11.70;;;4.57;;
71464;SDS011;59274;49.874;9.154;2023-02-21T05:12:54;13.13;;;5.35;;
71464;SDS011;59274;49.874;9.154;2023-02-21T05:15:20;10.73;;;5.07;;
71464;SDS011;59274;49.874;9.154;2023-02-21T05:17:45;11.73;;;4.87;;
71464;SDS011;59274;49.874;9.154;2023-02-21T05:20:11;11.98;;;4.80;;
71464;SDS011;59274;49.874;9.154;2023-02-21T05:22:37;16.87;;;5.93;;
71464;SDS011;59274;49.874;9.154;2023-02-21T05:25:16;12.85;;;6.07;;
71464;SDS011;59274;49.874;9.154;2023-02-21T05:27:44;14.00;;;5.00;;
71464;SDS011;59274;49.874;9.154;2023-02-21T05:30:10;14.17;;;5.10;;
71464;SDS011;59274;49.874;9.154;2023-02-21T05:32:38;12.07;;;4.78;;
71464;SDS011;59274;49.874;9.154;2023-02-21T05:35:04;13.80;;;5.38;;
71464;SDS011;59274;49.874;9.154;2023-02-21T05:37:30;18.02;;;5.50;;
71464;SDS011;59274;49.874;9.154;2023-02-21T05:39:55;13.90;;;5.33;;
71464;SDS011;59274;49.874;9.154;2023-02-21T05:42:21;15.32;;;5.30;;
71464;SDS011;59274;49.874;9.154;2023-02-21T05:44:46;13.00;;;5.03;;
71464;SDS011;59274;49.874;9.154;2023-02-21T05:47:12;13.43;;;5.13;;
71464;SDS011;59274;49.874;9.154;2023-02-21T05:49:38;17.17;;;5.55;;
71464;SDS011;59274;49.874;9.154;2023-02-21T05:52:04;15.40;;;5.97;;
71464;SDS011;59274;49.874;9.154;2023-02-21T05:54:30;14.97;;;6.50;;
71464;SDS011;59274;49.874;9.154;2023-02-21T05:56:55;16.45;;;6.68;;
71464;SDS011;59274;49.874;9.154;2023-02-21T05:59:21;14.10;;;6.43;;
71464;SDS011;59274;49.874;9.154;2023-02-21T06:01:47;13.82;;;5.95;;
71464;SDS011;59274;49.874;9.154;2023-02-21T06:04:13;16.35;;;6.43;;
71464;SDS011;59274;49.874;9.154;2023-02-21T06:06:39;15.73;;;6.78;;
71464;SDS011;59274;49.874;9.154;2023-02-21T06:09:04;14.93;;;6.67;;
71464;SDS011;59274;49.874;9.154;2023-02-21T06:11:32;15.88;;;7.18;;
71464;SDS011;59274;49.874;9.154;2023-02-21T06:13:59;19.13;;;7.60;;
71464;SDS011;59274;49.874;9.154;2023-02-21T06:16:30;15.63;;;7.70;;
71464;SDS011;59274;49.874;9.154;2023-02-21T06:18:57;15.45;;;6.68;;
71464;SDS011;59274;49.874;9.154;2023-02-21T06:21:23;17.58;;;6.25;;
71464;SDS011;59274;49.874;9.154;2023-02-21T06:23:48;19.20;;;6.72;;
71464;SDS011;59274;49.874;9.154;2023-02-21T06:26:14;19.30;;;7.27;;
71464;SDS011;59274;49.874;9.154;2023-02-21T06:28:41;17.55;;;7.18;;
71464;SDS011;59274;49.874;9.154;2023-02-21T06:31:06;20.30;;;8.03;;
71464;SDS011;59274;49.874;9.154;2023-02-21T06:33:32;22.83;;;8.77;;
71464;SDS011;59274;49.874;9.154;2023-02-21T06:35:58;19.03;;;7.27;;
71464;SDS011;59274;49.874;9.154;2023-02-21T06:38:28;16.75;;;7.47;;
71464;SDS011;59274;49.874;9.154;2023-02-21T06:40:53;16.73;;;6.50;;
71464;SDS011;59274;49.874;9.154;2023-02-21T06:43:18;13.03;;;6.10;;
71464;SDS011;59274;49.874;9.154;2023-02-21T06:45:44;15.57;;;6.88;;
71464;SDS011;59274;49.874;9.154;2023-02-21T06:48:12;19.47;;;8.27;;
71464;SDS011;59274;49.874;9.154;2023-02-21T06:50:39;17.10;;;6.90;;
71464;SDS011;59274;49.874;9.154;2023-02-21T06:53:04;15.80;;;6.70;;
71464;SDS011;59274;49.874;9.154;2023-02-21T06:55:30;21.20;;;7.23;;
71464;SDS011;59274;49.874;9.154;2023-02-21T06:57:55;21.77;;;6.80;;
71464;SDS011;59274;49.874;9.154;2023-02-21T07:00:20;26.87;;;9.83;;
71464;SDS011;59274;49.874;9.154;2023-02-21T07:02:46;27.17;;;10.50;;
71464;SDS011;59274;49.874;9.154;2023-02-21T07:05:11;20.27;;;7.30;;
71464;SDS011;59274;49.874;9.154;2023-02-21T07:07:37;29.20;;;12.97;;
71464;SDS011;59274;49.874;9.154;2023-02-21T07:10:02;20.23;;;7.73;;
71464;SDS011;59274;49.874;9.154;2023-02-21T07:12:28;18.17;;;6.80;;
71464;SDS011;59274;49.874;9.154;2023-02-21T07:14:54;16.33;;;7.70;;
71464;SDS011;59274;49.874;9.154;2023-02-21T07:17:19;15.75;;;6.32;;
71464;SDS011;59274;49.874;9.154;2023-02-21T07:19:45;14.07;;;5.35;;
71464;SDS011;59274;49.874;9.154;2023-02-21T07:22:10;14.80;;;6.20;;
71464;SDS011;59274;49.874;9.154;2023-02-21T07:24:36;13.10;;;6.23;;
71464;SDS011;59274;49.874;9.154;2023-02-21T07:27:01;14.00;;;5.40;;
71464;SDS011;59274;49.874;9.154;2023-02-21T07:29:27;13.03;;;5.30;;
71464;SDS011;59274;49.874;9.154;2023-02-21T07:31:52;11.43;;;4.80;;
71464;SDS011;59274;49.874;9.154;2023-02-21T07:34:18;11.57;;;5.15;;
71464;SDS011;59274;49.874;9.154;2023-02-21T07:36:44;13.70;;;6.03;;
71464;SDS011;59274;49.874;9.154;2023-02-21T07:39:12;16.52;;;6.13;;
71464;SDS011;59274;49.874;9.154;2023-02-21T07:41:38;13.82;;;5.78;;
71464;SDS011;59274;49.874;9.154;2023-02-21T07:44:04;16.40;;;5.50;;
71464;SDS011;59274;49.874;9.154;2023-02-21T07:46:29;13.13;;;5.27;;
71464;SDS011;59274;49.874;9.154;2023-02-21T07:48:55;13.43;;;5.43;;
71464;SDS011;59274;49.874;9.154;2023-02-21T07:51:20;13.98;;;6.18;;
71464;SDS011;59274;49.874;9.154;2023-02-21T07:53:45;14.57;;;5.47;;
71464;SDS011;59274;49.874;9.154;2023-02-21T07:56:11;17.07;;;6.23;;
71464;SDS011;59274;49.874;9.154;2023-02-21T07:58:37;12.60;;;5.57;;
71464;SDS011;59274;49.874;9.154;2023-02-21T08:01:03;14.07;;;6.13;;
71464;SDS011;59274;49.874;9.154;2023-02-21T08:03:29;17.52;;;6.75;;
71464;SDS011;59274;49.874;9.154;2023-02-21T08:05:55;16.83;;;5.90;;
71464;SDS011;59274;49.874;9.154;2023-02-21T08:08:20;14.40;;;5.90;;
71464;SDS011;59274;49.874;9.154;2023-02-21T08:10:47;13.40;;;6.60;;
71464;SDS011;59274;49.874;9.154;2023-02-21T08:13:13;14.63;;;6.78;;
71464;SDS011;59274;49.874;9.154;2023-02-21T08:15:38;16.00;;;7.13;;
71464;SDS011;59274;49.874;9.154;2023-02-21T08:18:04;21.67;;;6.90;;
71464;SDS011;59274;49.874;9.154;2023-02-21T08:20:29;18.87;;;7.50;;
71464;SDS011;59274;49.874;9.154;2023-02-21T08:22:55;19.88;;;7.97;;
71464;SDS011;59274;49.874;9.154;2023-02-21T08:25:21;18.67;;;8.53;;
71464;SDS011;59274;49.874;9.154;2023-02-21T08:27:47;16.90;;;7.55;;
71464;SDS011;59274;49.874;9.154;2023-02-21T08:30:17;15.48;;;7.55;;
71464;SDS011;59274;49.874;9.154;2023-02-21T08:32:43;15.60;;;7.50;;
71464;SDS011;59274;49.874;9.154;2023-02-21T08:35:14;16.45;;;7.78;;
71464;SDS011;59274;49.874;9.154;2023-02-21T08:37:48;16.80;;;7.50;;
71464;SDS011;59274;49.874;9.154;2023-02-21T08:40:17;15.05;;;7.05;;
71464;SDS011;59274;49.874;9.154;2023-02-21T08:42:46;15.80;;;7.00;;
71464;SDS011;59274;49.874;9.154;2023-02-21T08:45:15;15.38;;;6.78;;
71464;SDS011;59274;49.874;9.154;2023-02-21T08:47:41;17.13;;;6.90;;
71464;SDS011;59274;49.874;9.154;2023-02-21T08:50:07;17.37;;;7.00;;
71464;SDS011;59274;49.874;9.154;2023-02-21T08:52:32;18.85;;;7.65;;
71464;SDS011;59274;49.874;9.154;2023-02-21T08:54:58;13.93;;;7.00;;
71464;SDS011;59274;49.874;9.154;2023-02-21T08:57:23;16.93;;;8.03;;
71464;SDS011;59274;49.874;9.154;2023-02-21T08:59:49;19.95;;;7.95;;
71464;SDS011;59274;49.874;9.154;2023-02-21T09:02:18;18.10;;;8.98;;
71464;SDS011;59274;49.874;9.154;2023-02-21T09:04:46;20.90;;;9.63;;
71464;SDS011;59274;49.874;9.154;2023-02-21T09:07:13;21.73;;;10.20;;
71464;SDS011;59274;49.874;9.154;2023-02-21T09:09:40;19.20;;;9.18;;
71464;SDS011;59274;49.874;9.154;2023-02-21T09:12:05;17.30;;;8.37;;
71464;SDS011;59274;49.874;9.154;2023-02-21T09:14:35;17.45;;;8.57;;
71464;SDS011;59274;49.874;9.154;2023-02-21T09:17:02;19.25;;;8.85;;
71464;SDS011;59274;49.874;9.154;2023-02-21T09:19:28;18.33;;;8.80;;
71464;SDS011;59274;49.874;9.154;2023-02-21T09:21:53;16.87;;;8.57;;
71464;SDS011;59274;49.874;9.154;2023-02-21T09:24:22;17.25;;;8.57;;
71464;SDS011;59274;49.874;9.154;2023-02-21T09:26:58;17.30;;;7.97;;
71464;SDS011;59274;49.874;9.154;2023-02-21T09:29:27;18.83;;;7.75;;
71464;SDS011;59274;49.874;9.154;2023-02-21T09:31:58;16.75;;;7.75;;
71464;SDS011;59274;49.874;9.154;2023-02-21T09:34:24;17.77;;;7.95;;
71464;SDS011;59274;49.874;9.154;2023-02-21T09:36:49;18.30;;;8.03;;
71464;SDS011;59274;49.874;9.154;2023-02-21T09:39:15;16.70;;;7.93;;
71464;SDS011;59274;49.874;9.154;2023-02-21T09:41:41;15.95;;;7.40;;
71464;SDS011;59274;49.874;9.154;2023-02-21T09:44:20;17.83;;;8.80;;
71464;SDS011;59274;49.874;9.154;2023-02-21T09:46:48;18.15;;;8.05;;
71464;SDS011;59274;49.874;9.154;2023-02-21T09:52:04;39.50;;;15.27;;
71464;SDS011;59274;49.874;9.154;2023-02-21T09:54:35;21.55;;;9.50;;
71464;SDS011;59274;49.874;9.154;2023-02-21T09:57:06;17.42;;;8.73;;
71464;SDS011;59274;49.874;9.154;2023-02-21T09:59:38;17.25;;;8.18;;
71464;SDS011;59274;49.874;9.154;2023-02-21T10:08:15;16.65;;;7.53;;
71464;SDS011;59274;49.874;9.154;2023-02-21T10:10:29;15.17;;;6.87;;
71464;SDS011;59274;49.874;9.154;2023-02-21T10:18:33;16.05;;;7.35;;
71464;SDS011;59274;49.874;9.154;2023-02-21T10:21:27;17.65;;;6.68;;
71464;SDS011;59274;49.874;9.154;2023-02-21T10:23:56;13.13;;;6.60;;
71464;SDS011;59274;49.874;9.154;2023-02-21T10:26:28;15.73;;;8.85;;
71464;SDS011;59274;49.874;9.154;2023-02-21T10:28:58;16.17;;;7.72;;
71464;SDS011;59274;49.874;9.154;2023-02-21T10:31:33;14.43;;;6.80;;
71464;SDS011;59274;49.874;9.154;2023-02-21T10:34:04;15.70;;;6.22;;
71464;SDS011;59274;49.874;9.154;2023-02-21T10:36:31;14.63;;;6.60;;
71464;SDS011;59274;49.874;9.154;2023-02-21T10:39:03;13.27;;;6.07;;
71464;SDS011;59274;49.874;9.154;2023-02-21T10:41:37;13.20;;;6.10;;
71464;SDS011;59274;49.874;9.154;2023-02-21T10:44:08;16.98;;;6.10;;
71464;SDS011;59274;49.874;9.154;2023-02-21T10:46:52;14.45;;;6.10;;
71464;SDS011;59274;49.874;9.154;2023-02-21T10:49:28;12.63;;;6.17;;
71464;SDS011;59274;49.874;9.154;2023-02-21T10:54:36;13.80;;;6.50;;
71464;SDS011;59274;49.874;9.154;2023-02-21T10:57:06;12.55;;;7.00;;
71464;SDS011;59274;49.874;9.154;2023-02-21T10:59:39;12.77;;;6.25;;
71464;SDS011;59274;49.874;9.154;2023-02-21T11:02:49;13.20;;;5.57;;
71464;SDS011;59274;49.874;9.154;2023-02-21T11:05:15;13.02;;;6.35;;
71464;SDS011;59274;49.874;9.154;2023-02-21T11:07:55;13.25;;;6.20;;
71464;SDS011;59274;49.874;9.154;2023-02-21T11:10:24;11.52;;;5.57;;
71464;SDS011;59274;49.874;9.154;2023-02-21T11:15:37;11.90;;;6.23;;
71464;SDS011;59274;49.874;9.154;2023-02-21T11:18:18;12.45;;;6.18;;
71464;SDS011;59274;49.874;9.154;2023-02-21T11:20:48;11.23;;;4.70;;
71464;SDS011;59274;49.874;9.154;2023-02-21T11:23:28;8.82;;;3.83;;
71464;SDS011;59274;49.874;9.154;2023-02-21T11:28:36;8.48;;;3.60;;
71464;SDS011;59274;49.874;9.154;2023-02-21T11:33:54;9.73;;;4.00;;
71464;SDS011;59274;49.874;9.154;2023-02-21T11:36:36;8.35;;;3.50;;
71464;SDS011;59274;49.874;9.154;2023-02-21T11:39:05;10.23;;;3.58;;
71464;SDS011;59274;49.874;9.154;2023-02-21T11:41:48;8.85;;;3.80;;
71464;SDS011;59274;49.874;9.154;2023-02-21T11:44:29;6.97;;;2.95;;
71464;SDS011;59274;49.874;9.154;2023-02-21T11:52:33;7.72;;;3.10;;
71464;SDS011;59274;49.874;9.154;2023-02-21T11:55:11;16.38;;;8.30;;
71464;SDS011;59274;49.874;9.154;2023-02-21T12:00:23;6.70;;;3.00;;
71464;SDS011;59274;49.874;9.154;2023-02-21T12:03:03;8.25;;;3.30;;
71464;SDS011;59274;49.874;9.154;2023-02-21T12:05:43;7.53;;;2.75;;
71464;SDS011;59274;49.874;9.154;2023-02-21T12:22:07;8.00;;;3.13;;
71464;SDS011;59274;49.874;9.154;2023-02-21T12:30:24;7.53;;;3.10;;
71464;SDS011;59274;49.874;9.154;2023-02-21T12:38:49;7.63;;;3.47;;
71464;SDS011;59274;49.874;9.154;2023-02-21T12:43:50;7.25;;;3.33;;
71464;SDS011;59274;49.874;9.154;2023-02-21T12:49:10;8.30;;;3.15;;
71464;SDS011;59274;49.874;9.154;2023-02-21T12:52:26;7.63;;;3.05;;
71464;SDS011;59274;49.874;9.154;2023-02-21T12:54:44;6.55;;;2.90;;
71464;SDS011;59274;49.874;9.154;2023-02-21T12:57:18;9.55;;;3.00;;
71464;SDS011;59274;49.874;9.154;2023-02-21T12:59:57;10.03;;;3.30;;
71464;SDS011;59274;49.874;9.154;2023-02-21T13:05:35;7.07;;;3.13;;
71464;SDS011;59274;49.874;9.154;2023-02-21T13:08:26;10.00;;;3.20;;
71464;SDS011;59274;49.874;9.154;2023-02-21T13:13:36;7.57;;;2.77;;
71464;SDS011;59274;49.874;9.154;2023-02-21T13:16:09;7.68;;;3.15;;
71464;SDS011;59274;49.874;9.154;2023-02-21T13:24:02;7.15;;;3.22;;
71464;SDS011;59274;49.874;9.154;2023-02-21T13:29:31;7.13;;;2.92;;
71464;SDS011;59274;49.874;9.154;2023-02-21T13:31:59;8.75;;;3.13;;
71464;SDS011;59274;49.874;9.154;2023-02-21T13:34:28;7.05;;;3.00;;
71464;SDS011;59274;49.874;9.154;2023-02-21T13:37:00;7.72;;;3.50;;
71464;SDS011;59274;49.874;9.154;2023-02-21T13:39:32;11.82;;;3.95;;
71464;SDS011;59274;49.874;9.154;2023-02-21T13:42:09;10.45;;;3.85;;
71464;SDS011;59274;49.874;9.154;2023-02-21T13:44:47;6.63;;;3.10;;
71464;SDS011;59274;49.874;9.154;2023-02-21T13:47:18;6.20;;;3.00;;
71464;SDS011;59274;49.874;9.154;2023-02-21T13:49:46;8.15;;;3.30;;
71464;SDS011;59274;49.874;9.154;2023-02-21T13:57:46;8.18;;;2.85;;
71464;SDS011;59274;49.874;9.154;2023-02-21T14:05:20;6.97;;;3.35;;
71464;SDS011;59274;49.874;9.154;2023-02-21T14:07:47;9.85;;;3.60;;
71464;SDS011;59274;49.874;9.154;2023-02-21T14:10:40;8.60;;;4.38;;
71464;SDS011;59274;49.874;9.154;2023-02-21T14:13:16;8.50;;;3.78;;
71464;SDS011;59274;49.874;9.154;2023-02-21T14:15:43;9.77;;;4.05;;
71464;SDS011;59274;49.874;9.154;2023-02-21T14:20:54;9.32;;;4.10;;
71464;SDS011;59274;49.874;9.154;2023-02-21T14:23:21;10.63;;;4.43;;
71464;SDS011;59274;49.874;9.154;2023-02-21T14:25:58;8.85;;;4.40;;
71464;SDS011;59274;49.874;9.154;2023-02-21T14:34:25;8.60;;;3.95;;
71464;SDS011;59274;49.874;9.154;2023-02-21T14:37:03;8.60;;;4.18;;
71464;SDS011;59274;49.874;9.154;2023-02-21T14:39:37;8.90;;;4.00;;
71464;SDS011;59274;49.874;9.154;2023-02-21T14:42:16;7.75;;;3.72;;
71464;SDS011;59274;49.874;9.154;2023-02-21T15:03:58;9.18;;;3.78;;
71464;SDS011;59274;49.874;9.154;2023-02-21T15:06:36;8.85;;;3.60;;
71464;SDS011;59274;49.874;9.154;2023-02-21T15:09:16;7.82;;;3.60;;
71464;SDS011;59274;49.874;9.154;2023-02-21T15:11:42;8.95;;;3.97;;
71464;SDS011;59274;49.874;9.154;2023-02-21T15:14:22;8.20;;;3.80;;
71464;SDS011;59274;49.874;9.154;2023-02-21T15:16:53;8.73;;;3.50;;
71464;SDS011;59274;49.874;9.154;2023-02-21T15:22:04;8.90;;;3.60;;
71464;SDS011;59274;49.874;9.154;2023-02-21T15:24:41;7.40;;;3.22;;
71464;SDS011;59274;49.874;9.154;2023-02-21T15:27:22;8.65;;;3.50;;
71464;SDS011;59274;49.874;9.154;2023-02-21T15:30:00;8.57;;;3.70;;
71464;SDS011;59274;49.874;9.154;2023-02-21T15:32:33;8.30;;;3.63;;
71464;SDS011;59274;49.874;9.154;2023-02-21T15:35:01;8.55;;;3.85;;
71464;SDS011;59274;49.874;9.154;2023-02-21T15:37:29;8.43;;;3.67;;
71464;SDS011;59274;49.874;9.154;2023-02-21T15:40:00;8.10;;;3.90;;
71464;SDS011;59274;49.874;9.154;2023-02-21T15:42:35;8.82;;;4.20;;
71464;SDS011;59274;49.874;9.154;2023-02-21T15:45:08;9.00;;;4.03;;
71464;SDS011;59274;49.874;9.154;2023-02-21T15:47:51;8.27;;;4.20;;
71464;SDS011;59274;49.874;9.154;2023-02-21T15:55:39;7.97;;;3.90;;
71464;SDS011;59274;49.874;9.154;2023-02-21T16:08:53;10.32;;;4.50;;
71464;SDS011;59274;49.874;9.154;2023-02-21T16:11:46;11.13;;;4.18;;
71464;SDS011;59274;49.874;9.154;2023-02-21T16:14:29;8.35;;;3.72;;
71464;SDS011;59274;49.874;9.154;2023-02-21T16:19:37;8.05;;;3.42;;
71464;SDS011;59274;49.874;9.154;2023-02-21T16:24:42;8.10;;;3.67;;
71464;SDS011;59274;49.874;9.154;2023-02-21T16:27:09;10.13;;;3.70;;
71464;SDS011;59274;49.874;9.154;2023-02-21T16:29:37;11.57;;;4.10;;
71464;SDS011;59274;49.874;9.154;2023-02-21T16:32:02;9.70;;;3.90;;
71464;SDS011;59274;49.874;9.154;2023-02-21T16:34:30;9.73;;;3.67;;
71464;SDS011;59274;49.874;9.154;2023-02-21T16:37:00;8.60;;;3.70;;
71464;SDS011;59274;49.874;9.154;2023-02-21T16:39:31;9.73;;;4.03;;
71464;SDS011;59274;49.874;9.154;2023-02-21T16:41:57;8.20;;;3.53;;
71464;SDS011;59274;49.874;9.154;2023-02-21T16:44:23;8.52;;;3.60;;
71464;SDS011;59274;49.874;9.154;2023-02-21T16:46:49;9.30;;;4.00;;
71464;SDS011;59274;49.874;9.154;2023-02-21T16:49:15;10.77;;;3.70;;
71464;SDS011;59274;49.874;9.154;2023-02-21T16:51:41;10.07;;;3.97;;
71464;SDS011;59274;49.874;9.154;2023-02-21T16:54:07;7.95;;;3.70;;
71464;SDS011;59274;49.874;9.154;2023-02-21T16:56:37;10.40;;;4.43;;
71464;SDS011;59274;49.874;9.154;2023-02-21T16:59:10;8.83;;;4.20;;
71464;SDS011;59274;49.874;9.154;2023-02-21T17:01:39;9.50;;;4.15;;
71464;SDS011;59274;49.874;9.154;2023-02-21T17:04:08;9.95;;;4.63;;
71464;SDS011;59274;49.874;9.154;2023-02-21T17:06:39;10.20;;;4.45;;
71464;SDS011;59274;49.874;9.154;2023-02-21T17:09:04;10.90;;;4.30;;
71464;SDS011;59274;49.874;9.154;2023-02-21T17:11:30;12.03;;;4.10;;
71464;SDS011;59274;49.874;9.154;2023-02-21T17:13:55;8.47;;;3.87;;
71464;SDS011;59274;49.874;9.154;2023-02-21T17:16:20;11.17;;;5.23;;
71464;SDS011;59274;49.874;9.154;2023-02-21T17:18:46;14.13;;;6.97;;
71464;SDS011;59274;49.874;9.154;2023-02-21T17:21:12;14.47;;;6.93;;
71464;SDS011;59274;49.874;9.154;2023-02-21T17:23:37;12.37;;;6.33;;
71464;SDS011;59274;49.874;9.154;2023-02-21T17:26:03;7.90;;;3.72;;
71464;SDS011;59274;49.874;9.154;2023-02-21T17:28:28;6.07;;;1.97;;
71464;SDS011;59274;49.874;9.154;2023-02-21T17:30:54;8.35;;;2.80;;
71464;SDS011;59274;49.874;9.154;2023-02-21T17:33:20;11.53;;;2.60;;
71464;SDS011;59274;49.874;9.154;2023-02-21T17:35:46;6.97;;;2.33;;
71464;SDS011;59274;49.874;9.154;2023-02-21T17:38:11;9.27;;;3.10;;
71464;SDS011;59274;49.874;9.154;2023-02-21T17:40:37;7.85;;;2.65;;
71464;SDS011;59274;49.874;9.154;2023-02-21T17:43:03;7.77;;;3.17;;
71464;SDS011;59274;49.874;9.154;2023-02-21T17:45:33;7.32;;;3.03;;
71464;SDS011;59274;49.874;9.154;2023-02-21T17:48:00;6.97;;;2.92;;
71464;SDS011;59274;49.874;9.154;2023-02-21T17:50:27;6.78;;;3.10;;
71464;SDS011;59274;49.874;9.154;2023-02-21T17:52:53;10.20;;;3.27;;
71464;SDS011;59274;49.874;9.154;2023-02-21T17:55:20;8.00;;;3.05;;
71464;SDS011;59274;49.874;9.154;2023-02-21T17:57:51;7.13;;;2.80;;
71464;SDS011;59274;49.874;9.154;2023-02-21T18:00:18;8.93;;;3.20;;
71464;SDS011;59274;49.874;9.154;2023-02-21T18:02:47;8.55;;;3.60;;
71464;SDS011;59274;49.874;9.154;2023-02-21T18:05:13;10.88;;;4.57;;
71464;SDS011;59274;49.874;9.154;2023-02-21T18:07:38;9.10;;;4.40;;
71464;SDS011;59274;49.874;9.154;2023-02-21T18:10:05;12.40;;;6.05;;
71464;SDS011;59274;49.874;9.154;2023-02-21T18:12:31;15.70;;;7.00;;
71464;SDS011;59274;49.874;9.154;2023-02-21T18:15:00;13.40;;;7.25;;